sensor_id;sensor_type;location;lat;lon;timestamp;P1;durP1;ratioP1;P2;durP2;ratioP2
1360;SDS011;674;45.552;-122.600;2023-05-10T00:01:44;3.10;;;1.93;;
1360;SDS011;674;45.552;-122.600;2023-05-10T00:04:13;4.30;;;1.60;;
1360;SDS011;674;45.552;-122.600;2023-05-10T00:06:41;3.97;;;1.73;;
1360;SDS011;674;45.552;-122.600;2023-05-10T00:09:10;2.97;;;1.60;;
1360;SDS011;674;45.552;-122.600;2023-05-10T00:11:38;2.47;;;1.67;;
1360;SDS011;674;45.552;-122.600;2023-05-10T00:14:11;3.50;;;1.83;;
1360;SDS011;674;45.552;-122.600;2023-05-10T00:16:39;3.23;;;1.90;;
1360;SDS011;674;45.552;-122.600;2023-05-10T00:19:08;2.47;;;1.50;;
1360;SDS011;674;45.552;-122.600;2023-05-10T00:21:36;3.17;;;1.70;;
1360;SDS011;674;45.552;-122.600;2023-05-10T00:24:05;10.30;;;2.10;;
1360;SDS011;674;45.552;-122.600;2023-05-10T00:26:33;2.53;;;1.63;;
1360;SDS011;674;45.552;-122.600;2023-05-10T00:29:02;4.13;;;2.13;;
1360;SDS011;674;45.552;-122.600;2023-05-10T00:31:30;2.30;;;1.83;;
1360;SDS011;674;45.552;-122.600;2023-05-10T00:33:58;3.80;;;1.50;;
1360;SDS011;674;45.552;-122.600;2023-05-10T00:36:27;3.53;;;2.00;;
1360;SDS011;674;45.552;-122.600;2023-05-10T00:38:55;6.90;;;1.67;;
1360;SDS011;674;45.552;-122.600;2023-05-10T00:41:24;3.60;;;1.83;;
1360;SDS011;674;45.552;-122.600;2023-05-10T00:43:52;3.83;;;1.70;;
1360;SDS011;674;45.552;-122.600;2023-05-10T00:46:20;3.53;;;1.80;;
1360;SDS011;674;45.552;-122.600;2023-05-10T00:48:49;2.80;;;2.03;;
1360;SDS011;674;45.552;-122.600;2023-05-10T00:51:17;4.20;;;1.73;;
1360;SDS011;674;45.552;-122.600;2023-05-10T00:53:46;3.77;;;1.80;;
1360;SDS011;674;45.552;-122.600;2023-05-10T00:56:15;5.10;;;2.30;;
1360;SDS011;674;45.552;-122.600;2023-05-10T00:58:43;2.83;;;1.70;;
1360;SDS011;674;45.552;-122.600;2023-05-10T01:01:12;2.40;;;1.73;;
1360;SDS011;674;45.552;-122.600;2023-05-10T01:03:41;6.53;;;2.00;;
1360;SDS011;674;45.552;-122.600;2023-05-10T01:06:10;3.07;;;1.60;;
1360;SDS011;674;45.552;-122.600;2023-05-10T01:08:38;4.10;;;2.03;;
1360;SDS011;674;45.552;-122.600;2023-05-10T01:11:08;3.07;;;1.60;;
1360;SDS011;674;45.552;-122.600;2023-05-10T01:13:37;2.60;;;1.47;;
1360;SDS011;674;45.552;-122.600;2023-05-10T01:16:07;3.30;;;1.60;;
1360;SDS011;674;45.552;-122.600;2023-05-10T01:18:36;3.50;;;1.90;;
1360;SDS011;674;45.552;-122.600;2023-05-10T01:21:23;3.40;;;1.97;;
1360;SDS011;674;45.552;-122.600;2023-05-10T01:32:52;6.10;;;1.50;;
1360;SDS011;674;45.552;-122.600;2023-05-10T01:35:35;11.83;;;2.60;;
1360;SDS011;674;45.552;-122.600;2023-05-10T01:41:28;2.63;;;1.73;;
1360;SDS011;674;45.552;-122.600;2023-05-10T01:44:04;3.23;;;1.70;;
1360;SDS011;674;45.552;-122.600;2023-05-10T01:47:02;4.17;;;2.30;;
1360;SDS011;674;45.552;-122.600;2023-05-10T01:49:42;2.70;;;1.60;;
1360;SDS011;674;45.552;-122.600;2023-05-10T01:52:19;3.40;;;1.67;;
1360;SDS011;674;45.552;-122.600;2023-05-10T01:54:55;4.60;;;1.97;;
1360;SDS011;674;45.552;-122.600;2023-05-10T01:57:32;3.00;;;1.60;;
1360;SDS011;674;45.552;-122.600;2023-05-10T02:00:03;5.43;;;1.70;;
1360;SDS011;674;45.552;-122.600;2023-05-10T02:02:41;3.03;;;1.80;;
1360;SDS011;674;45.552;-122.600;2023-05-10T02:05:13;3.70;;;1.80;;
1360;SDS011;674;45.552;-122.600;2023-05-10T02:07:43;4.20;;;1.40;;
1360;SDS011;674;45.552;-122.600;2023-05-10T02:10:12;3.53;;;1.80;;
1360;SDS011;674;45.552;-122.600;2023-05-10T02:12:43;4.17;;;1.70;;
1360;SDS011;674;45.552;-122.600;2023-05-10T02:15:15;2.83;;;1.60;;
1360;SDS011;674;45.552;-122.600;2023-05-10T02:17:48;3.07;;;1.63;;
1360;SDS011;674;45.552;-122.600;2023-05-10T02:20:16;4.07;;;1.53;;
1360;SDS011;674;45.552;-122.600;2023-05-10T02:22:47;2.87;;;1.40;;
1360;SDS011;674;45.552;-122.600;2023-05-10T02:25:19;2.50;;;1.70;;
1360;SDS011;674;45.552;-122.600;2023-05-10T02:27:49;2.20;;;1.20;;
1360;SDS011;674;45.552;-122.600;2023-05-10T02:30:21;3.33;;;1.80;;
1360;SDS011;674;45.552;-122.600;2023-05-10T02:32:51;5.03;;;2.03;;
1360;SDS011;674;45.552;-122.600;2023-05-10T02:35:20;4.07;;;1.70;;
1360;SDS011;674;45.552;-122.600;2023-05-10T02:37:51;4.97;;;1.63;;
1360;SDS011;674;45.552;-122.600;2023-05-10T02:40:21;3.23;;;1.40;;
1360;SDS011;674;45.552;-122.600;2023-05-10T02:42:54;3.43;;;1.50;;
1360;SDS011;674;45.552;-122.600;2023-05-10T02:45:27;4.30;;;1.80;;
1360;SDS011;674;45.552;-122.600;2023-05-10T02:47:57;2.97;;;1.93;;
1360;SDS011;674;45.552;-122.600;2023-05-10T02:50:27;4.33;;;1.90;;
1360;SDS011;674;45.552;-122.600;2023-05-10T02:53:00;2.70;;;1.50;;
1360;SDS011;674;45.552;-122.600;2023-05-10T02:55:37;2.33;;;1.43;;
1360;SDS011;674;45.552;-122.600;2023-05-10T02:58:10;2.63;;;1.40;;
1360;SDS011;674;45.552;-122.600;2023-05-10T03:00:38;2.60;;;1.83;;
1360;SDS011;674;45.552;-122.600;2023-05-10T03:03:07;4.00;;;1.60;;
1360;SDS011;674;45.552;-122.600;2023-05-10T03:05:36;2.37;;;1.63;;
1360;SDS011;674;45.552;-122.600;2023-05-10T03:08:04;2.73;;;1.57;;
1360;SDS011;674;45.552;-122.600;2023-05-10T03:10:33;3.50;;;1.50;;
1360;SDS011;674;45.552;-122.600;2023-05-10T03:15:57;3.73;;;1.67;;
1360;SDS011;674;45.552;-122.600;2023-05-10T03:18:48;2.63;;;1.53;;
1360;SDS011;674;45.552;-122.600;2023-05-10T03:21:25;2.87;;;1.67;;
1360;SDS011;674;45.552;-122.600;2023-05-10T03:24:05;2.93;;;1.87;;
1360;SDS011;674;45.552;-122.600;2023-05-10T03:26:36;2.80;;;1.90;;
1360;SDS011;674;45.552;-122.600;2023-05-10T03:29:06;2.47;;;1.70;;
1360;SDS011;674;45.552;-122.600;2023-05-10T03:31:35;4.00;;;1.93;;
1360;SDS011;674;45.552;-122.600;2023-05-10T03:34:05;2.40;;;1.50;;
1360;SDS011;674;45.552;-122.600;2023-05-10T03:36:34;4.57;;;2.47;;
1360;SDS011;674;45.552;-122.600;2023-05-10T03:39:03;4.47;;;2.00;;
1360;SDS011;674;45.552;-122.600;2023-05-10T03:41:31;4.93;;;2.33;;
1360;SDS011;674;45.552;-122.600;2023-05-10T03:43:59;3.73;;;2.73;;
1360;SDS011;674;45.552;-122.600;2023-05-10T03:46:28;4.83;;;2.00;;
1360;SDS011;674;45.552;-122.600;2023-05-10T03:48:56;4.37;;;2.00;;
1360;SDS011;674;45.552;-122.600;2023-05-10T03:51:25;5.70;;;2.20;;
1360;SDS011;674;45.552;-122.600;2023-05-10T03:53:55;3.77;;;1.93;;
1360;SDS011;674;45.552;-122.600;2023-05-10T03:56:23;5.80;;;2.50;;
1360;SDS011;674;45.552;-122.600;2023-05-10T03:58:52;3.70;;;2.20;;
1360;SDS011;674;45.552;-122.600;2023-05-10T04:01:20;4.03;;;2.70;;
1360;SDS011;674;45.552;-122.600;2023-05-10T04:03:48;5.50;;;3.47;;
1360;SDS011;674;45.552;-122.600;2023-05-10T04:06:17;4.27;;;3.77;;
1360;SDS011;674;45.552;-122.600;2023-05-10T04:08:45;7.83;;;5.20;;
1360;SDS011;674;45.552;-122.600;2023-05-10T04:11:13;6.67;;;4.67;;
1360;SDS011;674;45.552;-122.600;2023-05-10T04:13:42;7.63;;;4.50;;
1360;SDS011;674;45.552;-122.600;2023-05-10T04:16:10;10.23;;;5.47;;
1360;SDS011;674;45.552;-122.600;2023-05-10T04:18:38;10.57;;;6.10;;
1360;SDS011;674;45.552;-122.600;2023-05-10T04:21:13;8.10;;;4.77;;
1360;SDS011;674;45.552;-122.600;2023-05-10T04:23:41;6.13;;;4.77;;
1360;SDS011;674;45.552;-122.600;2023-05-10T04:26:10;7.00;;;4.23;;
1360;SDS011;674;45.552;-122.600;2023-05-10T04:28:39;4.17;;;3.47;;
1360;SDS011;674;45.552;-122.600;2023-05-10T04:31:09;6.20;;;3.23;;
1360;SDS011;674;45.552;-122.600;2023-05-10T04:33:38;4.03;;;3.57;;
1360;SDS011;674;45.552;-122.600;2023-05-10T04:36:06;5.00;;;3.40;;
1360;SDS011;674;45.552;-122.600;2023-05-10T04:38:34;3.70;;;2.60;;
1360;SDS011;674;45.552;-122.600;2023-05-10T04:41:12;6.17;;;3.07;;
1360;SDS011;674;45.552;-122.600;2023-05-10T04:43:40;6.90;;;3.13;;
1360;SDS011;674;45.552;-122.600;2023-05-10T04:46:08;5.17;;;2.57;;
1360;SDS011;674;45.552;-122.600;2023-05-10T04:48:37;3.20;;;2.27;;
1360;SDS011;674;45.552;-122.600;2023-05-10T04:51:05;4.40;;;2.83;;
1360;SDS011;674;45.552;-122.600;2023-05-10T04:53:34;4.57;;;2.53;;
1360;SDS011;674;45.552;-122.600;2023-05-10T04:56:03;3.27;;;2.67;;
1360;SDS011;674;45.552;-122.600;2023-05-10T04:58:32;4.90;;;2.93;;
1360;SDS011;674;45.552;-122.600;2023-05-10T05:01:07;4.97;;;2.67;;
1360;SDS011;674;45.552;-122.600;2023-05-10T05:03:36;3.53;;;2.63;;
1360;SDS011;674;45.552;-122.600;2023-05-10T05:06:05;5.37;;;2.30;;
1360;SDS011;674;45.552;-122.600;2023-05-10T05:08:34;3.37;;;1.87;;
1360;SDS011;674;45.552;-122.600;2023-05-10T05:11:03;3.67;;;2.00;;
1360;SDS011;674;45.552;-122.600;2023-05-10T05:13:31;3.67;;;2.10;;
1360;SDS011;674;45.552;-122.600;2023-05-10T05:16:00;4.90;;;2.60;;
1360;SDS011;674;45.552;-122.600;2023-05-10T05:18:29;3.33;;;1.90;;
1360;SDS011;674;45.552;-122.600;2023-05-10T05:20:58;3.97;;;1.97;;
1360;SDS011;674;45.552;-122.600;2023-05-10T05:23:26;6.30;;;2.57;;
1360;SDS011;674;45.552;-122.600;2023-05-10T05:25:55;5.20;;;3.80;;
1360;SDS011;674;45.552;-122.600;2023-05-10T05:28:23;4.70;;;3.27;;
1360;SDS011;674;45.552;-122.600;2023-05-10T05:30:51;5.80;;;3.80;;
1360;SDS011;674;45.552;-122.600;2023-05-10T05:33:20;5.30;;;3.30;;
1360;SDS011;674;45.552;-122.600;2023-05-10T05:35:49;5.77;;;3.40;;
1360;SDS011;674;45.552;-122.600;2023-05-10T05:38:17;4.93;;;2.83;;
1360;SDS011;674;45.552;-122.600;2023-05-10T05:40:46;2.83;;;2.00;;
1360;SDS011;674;45.552;-122.600;2023-05-10T05:43:14;4.30;;;2.23;;
1360;SDS011;674;45.552;-122.600;2023-05-10T05:45:42;2.57;;;1.73;;
1360;SDS011;674;45.552;-122.600;2023-05-10T05:48:11;3.17;;;2.07;;
1360;SDS011;674;45.552;-122.600;2023-05-10T05:50:39;3.47;;;1.70;;
1360;SDS011;674;45.552;-122.600;2023-05-10T05:53:08;4.87;;;2.07;;
1360;SDS011;674;45.552;-122.600;2023-05-10T05:55:36;4.03;;;2.10;;
1360;SDS011;674;45.552;-122.600;2023-05-10T05:58:05;3.47;;;1.40;;
1360;SDS011;674;45.552;-122.600;2023-05-10T06:00:33;2.57;;;1.73;;
1360;SDS011;674;45.552;-122.600;2023-05-10T06:03:02;4.67;;;1.80;;
1360;SDS011;674;45.552;-122.600;2023-05-10T06:05:30;4.90;;;2.20;;
1360;SDS011;674;45.552;-122.600;2023-05-10T06:07:59;5.70;;;2.23;;
1360;SDS011;674;45.552;-122.600;2023-05-10T06:10:28;4.00;;;1.87;;
1360;SDS011;674;45.552;-122.600;2023-05-10T06:12:57;3.63;;;1.77;;
1360;SDS011;674;45.552;-122.600;2023-05-10T06:15:26;2.87;;;1.73;;
1360;SDS011;674;45.552;-122.600;2023-05-10T06:17:54;5.67;;;2.20;;
1360;SDS011;674;45.552;-122.600;2023-05-10T06:20:23;4.17;;;2.20;;
1360;SDS011;674;45.552;-122.600;2023-05-10T06:22:51;6.67;;;2.53;;
1360;SDS011;674;45.552;-122.600;2023-05-10T06:25:20;3.53;;;1.80;;
1360;SDS011;674;45.552;-122.600;2023-05-10T06:27:48;4.93;;;1.90;;
1360;SDS011;674;45.552;-122.600;2023-05-10T06:30:19;3.77;;;1.60;;
1360;SDS011;674;45.552;-122.600;2023-05-10T06:32:50;6.90;;;2.37;;
1360;SDS011;674;45.552;-122.600;2023-05-10T06:35:19;4.53;;;1.80;;
1360;SDS011;674;45.552;-122.600;2023-05-10T06:37:47;3.43;;;2.00;;
1360;SDS011;674;45.552;-122.600;2023-05-10T06:40:16;4.23;;;1.60;;
1360;SDS011;674;45.552;-122.600;2023-05-10T06:42:45;6.77;;;2.13;;
1360;SDS011;674;45.552;-122.600;2023-05-10T06:45:15;3.70;;;2.00;;
1360;SDS011;674;45.552;-122.600;2023-05-10T06:47:44;4.10;;;2.03;;
1360;SDS011;674;45.552;-122.600;2023-05-10T06:50:13;4.30;;;2.00;;
1360;SDS011;674;45.552;-122.600;2023-05-10T06:52:41;6.17;;;2.50;;
1360;SDS011;674;45.552;-122.600;2023-05-10T06:55:09;3.60;;;2.33;;
1360;SDS011;674;45.552;-122.600;2023-05-10T06:57:38;4.23;;;2.00;;
1360;SDS011;674;45.552;-122.600;2023-05-10T07:00:07;3.80;;;1.90;;
1360;SDS011;674;45.552;-122.600;2023-05-10T07:02:36;3.20;;;1.93;;
1360;SDS011;674;45.552;-122.600;2023-05-10T07:05:05;4.10;;;1.90;;
1360;SDS011;674;45.552;-122.600;2023-05-10T07:07:34;5.10;;;2.47;;
1360;SDS011;674;45.552;-122.600;2023-05-10T07:10:02;3.60;;;1.87;;
1360;SDS011;674;45.552;-122.600;2023-05-10T07:12:31;7.87;;;2.30;;
1360;SDS011;674;45.552;-122.600;2023-05-10T07:15:00;5.50;;;2.47;;
1360;SDS011;674;45.552;-122.600;2023-05-10T07:17:28;5.27;;;2.20;;
1360;SDS011;674;45.552;-122.600;2023-05-10T07:19:57;3.70;;;2.20;;
1360;SDS011;674;45.552;-122.600;2023-05-10T07:22:25;5.20;;;2.20;;
1360;SDS011;674;45.552;-122.600;2023-05-10T07:24:54;4.40;;;2.20;;
1360;SDS011;674;45.552;-122.600;2023-05-10T07:27:22;5.33;;;2.33;;
1360;SDS011;674;45.552;-122.600;2023-05-10T07:29:50;4.37;;;2.00;;
1360;SDS011;674;45.552;-122.600;2023-05-10T07:32:19;4.17;;;2.20;;
1360;SDS011;674;45.552;-122.600;2023-05-10T07:34:47;3.90;;;2.30;;
1360;SDS011;674;45.552;-122.600;2023-05-10T07:37:16;4.10;;;2.17;;
1360;SDS011;674;45.552;-122.600;2023-05-10T07:39:44;5.60;;;2.90;;
1360;SDS011;674;45.552;-122.600;2023-05-10T07:42:13;3.87;;;2.43;;
1360;SDS011;674;45.552;-122.600;2023-05-10T07:44:41;6.60;;;2.70;;
1360;SDS011;674;45.552;-122.600;2023-05-10T07:47:10;4.63;;;2.60;;
1360;SDS011;674;45.552;-122.600;2023-05-10T07:49:38;4.63;;;2.80;;
1360;SDS011;674;45.552;-122.600;2023-05-10T07:52:07;4.83;;;2.73;;
1360;SDS011;674;45.552;-122.600;2023-05-10T07:54:35;3.37;;;2.20;;
1360;SDS011;674;45.552;-122.600;2023-05-10T07:57:04;9.67;;;3.33;;
1360;SDS011;674;45.552;-122.600;2023-05-10T07:59:33;4.67;;;2.57;;
1360;SDS011;674;45.552;-122.600;2023-05-10T08:02:01;3.93;;;2.47;;
1360;SDS011;674;45.552;-122.600;2023-05-10T08:04:30;5.30;;;2.23;;
1360;SDS011;674;45.552;-122.600;2023-05-10T08:06:58;4.60;;;2.57;;
1360;SDS011;674;45.552;-122.600;2023-05-10T08:09:27;4.17;;;2.73;;
1360;SDS011;674;45.552;-122.600;2023-05-10T08:11:55;4.00;;;2.30;;
1360;SDS011;674;45.552;-122.600;2023-05-10T08:14:23;4.70;;;2.40;;
1360;SDS011;674;45.552;-122.600;2023-05-10T08:16:52;8.20;;;2.67;;
1360;SDS011;674;45.552;-122.600;2023-05-10T08:19:20;3.70;;;2.53;;
1360;SDS011;674;45.552;-122.600;2023-05-10T08:21:49;3.50;;;2.40;;
1360;SDS011;674;45.552;-122.600;2023-05-10T08:24:18;4.20;;;2.13;;
1360;SDS011;674;45.552;-122.600;2023-05-10T08:26:46;5.53;;;2.80;;
1360;SDS011;674;45.552;-122.600;2023-05-10T08:29:15;4.83;;;2.80;;
1360;SDS011;674;45.552;-122.600;2023-05-10T08:31:43;5.23;;;2.57;;
1360;SDS011;674;45.552;-122.600;2023-05-10T08:34:12;4.30;;;2.50;;
1360;SDS011;674;45.552;-122.600;2023-05-10T08:36:40;6.83;;;2.57;;
1360;SDS011;674;45.552;-122.600;2023-05-10T08:39:09;7.50;;;5.47;;
1360;SDS011;674;45.552;-122.600;2023-05-10T08:41:55;13.20;;;10.30;;
1360;SDS011;674;45.552;-122.600;2023-05-10T08:44:28;18.73;;;13.90;;
1360;SDS011;674;45.552;-122.600;2023-05-10T08:46:58;13.90;;;8.90;;
1360;SDS011;674;45.552;-122.600;2023-05-10T08:49:31;11.63;;;7.83;;
1360;SDS011;674;45.552;-122.600;2023-05-10T08:52:02;8.37;;;6.63;;
1360;SDS011;674;45.552;-122.600;2023-05-10T08:54:32;7.43;;;4.70;;
1360;SDS011;674;45.552;-122.600;2023-05-10T08:57:01;7.00;;;4.30;;
1360;SDS011;674;45.552;-122.600;2023-05-10T08:59:30;6.97;;;4.20;;
1360;SDS011;674;45.552;-122.600;2023-05-10T09:01:59;3.70;;;2.70;;
1360;SDS011;674;45.552;-122.600;2023-05-10T09:04:27;5.00;;;3.00;;
1360;SDS011;674;45.552;-122.600;2023-05-10T09:06:58;5.83;;;3.00;;
1360;SDS011;674;45.552;-122.600;2023-05-10T09:09:26;6.33;;;3.10;;
1360;SDS011;674;45.552;-122.600;2023-05-10T09:11:55;4.43;;;3.30;;
1360;SDS011;674;45.552;-122.600;2023-05-10T09:14:24;4.40;;;3.00;;
1360;SDS011;674;45.552;-122.600;2023-05-10T09:16:53;4.93;;;3.20;;
1360;SDS011;674;45.552;-122.600;2023-05-10T09:19:22;6.93;;;2.83;;
1360;SDS011;674;45.552;-122.600;2023-05-10T09:21:51;3.77;;;2.40;;
1360;SDS011;674;45.552;-122.600;2023-05-10T09:24:19;4.53;;;2.87;;
1360;SDS011;674;45.552;-122.600;2023-05-10T09:26:52;4.20;;;3.00;;
1360;SDS011;674;45.552;-122.600;2023-05-10T09:29:20;4.90;;;3.40;;
1360;SDS011;674;45.552;-122.600;2023-05-10T09:31:52;4.67;;;2.43;;
1360;SDS011;674;45.552;-122.600;2023-05-10T09:34:30;5.40;;;3.77;;
1360;SDS011;674;45.552;-122.600;2023-05-10T09:36:59;9.93;;;2.93;;
1360;SDS011;674;45.552;-122.600;2023-05-10T09:39:33;4.63;;;2.70;;
1360;SDS011;674;45.552;-122.600;2023-05-10T09:42:03;5.67;;;3.10;;
1360;SDS011;674;45.552;-122.600;2023-05-10T09:44:34;5.63;;;2.40;;
1360;SDS011;674;45.552;-122.600;2023-05-10T09:47:03;5.70;;;2.83;;
1360;SDS011;674;45.552;-122.600;2023-05-10T09:49:32;5.37;;;2.77;;
1360;SDS011;674;45.552;-122.600;2023-05-10T09:52:01;7.83;;;3.30;;
1360;SDS011;674;45.552;-122.600;2023-05-10T09:54:31;6.50;;;3.37;;
1360;SDS011;674;45.552;-122.600;2023-05-10T09:57:00;10.13;;;3.00;;
1360;SDS011;674;45.552;-122.600;2023-05-10T09:59:29;4.57;;;2.80;;
1360;SDS011;674;45.552;-122.600;2023-05-10T10:02:02;7.10;;;3.43;;
1360;SDS011;674;45.552;-122.600;2023-05-10T10:04:30;5.67;;;3.63;;
1360;SDS011;674;45.552;-122.600;2023-05-10T10:07:03;5.53;;;4.00;;
1360;SDS011;674;45.552;-122.600;2023-05-10T10:09:32;5.30;;;3.27;;
1360;SDS011;674;45.552;-122.600;2023-05-10T10:12:02;7.50;;;3.33;;
1360;SDS011;674;45.552;-122.600;2023-05-10T10:14:31;4.10;;;2.73;;
1360;SDS011;674;45.552;-122.600;2023-05-10T10:17:01;5.30;;;3.07;;
1360;SDS011;674;45.552;-122.600;2023-05-10T10:19:34;6.07;;;3.30;;
1360;SDS011;674;45.552;-122.600;2023-05-10T10:22:04;6.83;;;3.60;;
1360;SDS011;674;45.552;-122.600;2023-05-10T10:24:33;5.90;;;3.70;;
1360;SDS011;674;45.552;-122.600;2023-05-10T10:32:42;5.37;;;4.10;;
1360;SDS011;674;45.552;-122.600;2023-05-10T10:35:35;7.20;;;4.43;;
1360;SDS011;674;45.552;-122.600;2023-05-10T10:38:04;5.87;;;3.70;;
1360;SDS011;674;45.552;-122.600;2023-05-10T10:40:36;7.23;;;3.87;;
1360;SDS011;674;45.552;-122.600;2023-05-10T10:49:10;7.83;;;3.53;;
1360;SDS011;674;45.552;-122.600;2023-05-10T10:51:39;6.83;;;3.90;;
1360;SDS011;674;45.552;-122.600;2023-05-10T10:54:27;6.07;;;4.37;;
1360;SDS011;674;45.552;-122.600;2023-05-10T10:57:12;6.30;;;4.10;;
1360;SDS011;674;45.552;-122.600;2023-05-10T10:59:44;5.10;;;3.77;;
1360;SDS011;674;45.552;-122.600;2023-05-10T11:05:33;4.10;;;3.40;;
1360;SDS011;674;45.552;-122.600;2023-05-10T11:08:08;5.20;;;4.07;;
1360;SDS011;674;45.552;-122.600;2023-05-10T11:11:20;7.27;;;3.70;;
1360;SDS011;674;45.552;-122.600;2023-05-10T11:13:43;3.70;;;3.17;;
1360;SDS011;674;45.552;-122.600;2023-05-10T11:16:25;4.90;;;3.40;;
1360;SDS011;674;45.552;-122.600;2023-05-10T11:21:31;10.60;;;3.67;;
1360;SDS011;674;45.552;-122.600;2023-05-10T11:24:01;7.13;;;4.30;;
1360;SDS011;674;45.552;-122.600;2023-05-10T11:26:36;5.50;;;4.10;;
1360;SDS011;674;45.552;-122.600;2023-05-10T11:29:04;4.70;;;4.20;;
1360;SDS011;674;45.552;-122.600;2023-05-10T11:31:33;5.97;;;4.80;;
1360;SDS011;674;45.552;-122.600;2023-05-10T11:34:01;8.20;;;5.23;;
1360;SDS011;674;45.552;-122.600;2023-05-10T11:36:34;7.57;;;4.13;;
1360;SDS011;674;45.552;-122.600;2023-05-10T11:39:03;6.70;;;5.60;;
1360;SDS011;674;45.552;-122.600;2023-05-10T11:41:33;6.80;;;4.50;;
1360;SDS011;674;45.552;-122.600;2023-05-10T11:44:01;8.00;;;4.50;;
1360;SDS011;674;45.552;-122.600;2023-05-10T11:46:29;7.53;;;4.70;;
1360;SDS011;674;45.552;-122.600;2023-05-10T11:48:59;6.60;;;4.90;;
1360;SDS011;674;45.552;-122.600;2023-05-10T11:51:29;10.13;;;4.90;;
1360;SDS011;674;45.552;-122.600;2023-05-10T11:54:00;7.90;;;4.50;;
1360;SDS011;674;45.552;-122.600;2023-05-10T11:56:32;7.23;;;5.10;;
1360;SDS011;674;45.552;-122.600;2023-05-10T11:59:00;6.43;;;4.57;;
1360;SDS011;674;45.552;-122.600;2023-05-10T12:01:29;6.83;;;4.00;;
1360;SDS011;674;45.552;-122.600;2023-05-10T12:03:58;7.03;;;4.73;;
1360;SDS011;674;45.552;-122.600;2023-05-10T12:06:29;6.90;;;4.13;;
1360;SDS011;674;45.552;-122.600;2023-05-10T12:08:59;9.53;;;4.63;;
1360;SDS011;674;45.552;-122.600;2023-05-10T12:11:35;6.17;;;4.40;;
1360;SDS011;674;45.552;-122.600;2023-05-10T12:14:09;6.57;;;4.77;;
1360;SDS011;674;45.552;-122.600;2023-05-10T12:16:38;8.87;;;4.57;;
1360;SDS011;674;45.552;-122.600;2023-05-10T12:19:07;6.60;;;5.13;;
1360;SDS011;674;45.552;-122.600;2023-05-10T12:21:35;8.20;;;4.10;;
1360;SDS011;674;45.552;-122.600;2023-05-10T12:24:05;5.80;;;4.33;;
1360;SDS011;674;45.552;-122.600;2023-05-10T12:26:35;6.50;;;5.30;;
1360;SDS011;674;45.552;-122.600;2023-05-10T12:32:03;6.73;;;5.50;;
1360;SDS011;674;45.552;-122.600;2023-05-10T12:34:33;6.93;;;5.03;;
1360;SDS011;674;45.552;-122.600;2023-05-10T12:37:03;7.67;;;5.83;;
1360;SDS011;674;45.552;-122.600;2023-05-10T12:39:42;10.20;;;7.37;;
1360;SDS011;674;45.552;-122.600;2023-05-10T12:42:11;9.43;;;6.87;;
1360;SDS011;674;45.552;-122.600;2023-05-10T12:44:40;17.17;;;10.93;;
1360;SDS011;674;45.552;-122.600;2023-05-10T12:47:08;13.10;;;9.63;;
1360;SDS011;674;45.552;-122.600;2023-05-10T12:49:36;15.87;;;11.20;;
1360;SDS011;674;45.552;-122.600;2023-05-10T12:52:05;11.53;;;8.97;;
1360;SDS011;674;45.552;-122.600;2023-05-10T12:54:33;17.10;;;10.40;;
1360;SDS011;674;45.552;-122.600;2023-05-10T12:57:02;18.63;;;12.37;;
1360;SDS011;674;45.552;-122.600;2023-05-10T12:59:30;13.10;;;10.53;;
1360;SDS011;674;45.552;-122.600;2023-05-10T13:02:01;14.30;;;11.00;;
1360;SDS011;674;45.552;-122.600;2023-05-10T13:04:29;14.37;;;11.07;;
1360;SDS011;674;45.552;-122.600;2023-05-10T13:06:57;17.17;;;12.00;;
1360;SDS011;674;45.552;-122.600;2023-05-10T13:09:26;13.90;;;10.23;;
1360;SDS011;674;45.552;-122.600;2023-05-10T13:11:57;12.43;;;11.10;;
1360;SDS011;674;45.552;-122.600;2023-05-10T13:14:26;16.70;;;12.90;;
1360;SDS011;674;45.552;-122.600;2023-05-10T13:16:54;17.70;;;12.00;;
1360;SDS011;674;45.552;-122.600;2023-05-10T13:19:23;19.50;;;13.77;;
1360;SDS011;674;45.552;-122.600;2023-05-10T13:21:51;16.00;;;12.97;;
1360;SDS011;674;45.552;-122.600;2023-05-10T13:24:20;22.10;;;14.40;;
1360;SDS011;674;45.552;-122.600;2023-05-10T13:26:49;22.33;;;15.17;;
1360;SDS011;674;45.552;-122.600;2023-05-10T13:29:18;22.63;;;12.17;;
1360;SDS011;674;45.552;-122.600;2023-05-10T13:31:46;17.60;;;11.83;;
1360;SDS011;674;45.552;-122.600;2023-05-10T13:34:14;15.93;;;11.80;;
1360;SDS011;674;45.552;-122.600;2023-05-10T13:36:43;16.93;;;12.90;;
1360;SDS011;674;45.552;-122.600;2023-05-10T13:39:12;17.33;;;13.03;;
1360;SDS011;674;45.552;-122.600;2023-05-10T13:41:40;15.00;;;12.20;;
1360;SDS011;674;45.552;-122.600;2023-05-10T13:44:08;15.87;;;12.50;;
1360;SDS011;674;45.552;-122.600;2023-05-10T13:46:39;16.70;;;13.80;;
1360;SDS011;674;45.552;-122.600;2023-05-10T13:49:10;17.10;;;13.37;;
1360;SDS011;674;45.552;-122.600;2023-05-10T13:51:39;17.60;;;12.10;;
1360;SDS011;674;45.552;-122.600;2023-05-10T13:54:07;16.10;;;13.00;;
1360;SDS011;674;45.552;-122.600;2023-05-10T13:56:39;19.10;;;11.30;;
1360;SDS011;674;45.552;-122.600;2023-05-10T13:59:11;10.10;;;7.90;;
1360;SDS011;674;45.552;-122.600;2023-05-10T14:01:39;11.10;;;7.00;;
1360;SDS011;674;45.552;-122.600;2023-05-10T14:04:08;6.33;;;5.67;;
1360;SDS011;674;45.552;-122.600;2023-05-10T14:06:37;8.83;;;7.93;;
1360;SDS011;674;45.552;-122.600;2023-05-10T14:09:05;10.97;;;8.43;;
1360;SDS011;674;45.552;-122.600;2023-05-10T14:11:34;11.90;;;8.80;;
1360;SDS011;674;45.552;-122.600;2023-05-10T14:14:02;13.80;;;9.03;;
1360;SDS011;674;45.552;-122.600;2023-05-10T14:16:30;13.50;;;9.10;;
1360;SDS011;674;45.552;-122.600;2023-05-10T14:18:59;12.97;;;10.33;;
1360;SDS011;674;45.552;-122.600;2023-05-10T14:21:27;12.77;;;9.93;;
1360;SDS011;674;45.552;-122.600;2023-05-10T14:23:57;12.60;;;9.70;;
1360;SDS011;674;45.552;-122.600;2023-05-10T14:26:26;16.83;;;11.50;;
1360;SDS011;674;45.552;-122.600;2023-05-10T14:28:54;17.27;;;10.97;;
1360;SDS011;674;45.552;-122.600;2023-05-10T14:31:23;16.53;;;10.07;;
1360;SDS011;674;45.552;-122.600;2023-05-10T14:33:52;28.07;;;11.30;;
1360;SDS011;674;45.552;-122.600;2023-05-10T14:36:21;25.33;;;10.93;;
1360;SDS011;674;45.552;-122.600;2023-05-10T14:38:49;29.77;;;13.63;;
1360;SDS011;674;45.552;-122.600;2023-05-10T14:41:18;21.10;;;11.03;;
1360;SDS011;674;45.552;-122.600;2023-05-10T14:43:47;33.63;;;12.60;;
1360;SDS011;674;45.552;-122.600;2023-05-10T14:46:15;19.00;;;9.60;;
1360;SDS011;674;45.552;-122.600;2023-05-10T14:48:44;16.73;;;10.20;;
1360;SDS011;674;45.552;-122.600;2023-05-10T14:51:12;16.93;;;8.80;;
1360;SDS011;674;45.552;-122.600;2023-05-10T14:53:40;11.90;;;8.70;;
1360;SDS011;674;45.552;-122.600;2023-05-10T14:56:09;12.63;;;9.37;;
1360;SDS011;674;45.552;-122.600;2023-05-10T14:58:38;10.90;;;8.47;;
1360;SDS011;674;45.552;-122.600;2023-05-10T15:01:06;13.60;;;8.30;;
1360;SDS011;674;45.552;-122.600;2023-05-10T15:03:35;10.73;;;7.93;;
1360;SDS011;674;45.552;-122.600;2023-05-10T15:06:04;13.10;;;8.00;;
1360;SDS011;674;45.552;-122.600;2023-05-10T15:08:33;9.20;;;7.77;;
1360;SDS011;674;45.552;-122.600;2023-05-10T15:11:01;7.60;;;6.20;;
1360;SDS011;674;45.552;-122.600;2023-05-10T15:13:30;8.30;;;7.50;;
1360;SDS011;674;45.552;-122.600;2023-05-10T15:15:58;10.50;;;6.70;;
1360;SDS011;674;45.552;-122.600;2023-05-10T15:18:27;7.93;;;5.80;;
1360;SDS011;674;45.552;-122.600;2023-05-10T15:20:55;8.13;;;5.73;;
1360;SDS011;674;45.552;-122.600;2023-05-10T15:23:25;14.13;;;6.30;;
1360;SDS011;674;45.552;-122.600;2023-05-10T15:25:53;5.50;;;4.50;;
1360;SDS011;674;45.552;-122.600;2023-05-10T15:28:22;9.07;;;5.60;;
1360;SDS011;674;45.552;-122.600;2023-05-10T15:30:51;10.97;;;6.90;;
1360;SDS011;674;45.552;-122.600;2023-05-10T15:33:19;7.07;;;5.70;;
1360;SDS011;674;45.552;-122.600;2023-05-10T15:35:47;8.43;;;7.40;;